Time;durP1;ratioP1;P1;durP2;ratioP2;P2;SDS_P1;SDS_P2;PMS_P1;PMS_P2;Temp;Humidity;BMP_temperature;BMP_pressure;BME280_temperature;BME280_humidity;BME280_pressure;Samples;Min_cycle;Max_cycle;Signal;HPM_P1;HPM_P2
2022/03/19 00:02:04;;;;;;;17.73;12.88;;;;;;;7.10;71.92;104326.91;4995412;28;20113;-66
2022/03/19 00:04:30;;;;;;;15.20;9.45;;;;;;;7.25;71.21;104322.06;4983109;28;20057;-65
2022/03/19 00:06:55;;;;;;;18.48;9.88;;;;;;;7.33;71.05;104332.38;4986412;28;20117;-66
2022/03/19 00:09:20;;;;;;;19.08;11.70;;;;;;;7.33;71.26;104335.09;5001447;28;20046;-66
2022/03/19 00:11:46;;;;;;;24.92;14.80;;;;;;;7.19;71.53;104331.59;4994305;28;20093;-66
2022/03/19 00:14:12;;;;;;;20.10;14.57;;;;;;;6.92;72.89;104331.09;4983062;28;20030;-66
2022/03/19 00:16:38;;;;;;;17.85;12.57;;;;;;;7.00;72.58;104331.38;4995621;28;20049;-63
2022/03/19 00:19:03;;;;;;;19.05;14.55;;;;;;;6.85;73.08;104333.44;5003294;28;20021;-67
2022/03/19 00:21:29;;;;;;;19.15;12.10;;;;;;;6.98;72.67;104330.59;5001995;28;20033;-66
2022/03/19 00:23:54;;;;;;;23.15;14.27;;;;;;;7.10;72.20;104329.63;5002825;28;20448;-66
2022/03/19 00:26:20;;;;;;;18.65;13.00;;;;;;;7.15;71.92;104327.41;5000157;28;20026;-66
2022/03/19 00:28:45;;;;;;;18.05;10.95;;;;;;;6.97;72.65;104323.41;5002245;28;20026;-66
2022/03/19 00:31:10;;;;;;;24.83;14.45;;;;;;;6.87;73.18;104322.38;5001888;28;20080;-66
2022/03/19 00:33:36;;;;;;;19.63;13.68;;;;;;;6.98;72.79;104323.25;5003386;28;20026;-66
2022/03/19 00:36:01;;;;;;;22.35;16.58;;;;;;;6.74;73.95;104319.72;5002545;28;20038;-65
2022/03/19 00:38:26;;;;;;;22.08;14.77;;;;;;;6.75;73.90;104318.75;5001657;28;20026;-66
2022/03/19 00:40:52;;;;;;;22.33;16.98;;;;;;;6.73;74.31;104318.00;5005285;28;20468;-66
2022/03/19 00:43:20;;;;;;;23.83;17.70;;;;;;;6.54;74.84;104324.03;5006111;28;20041;-66
2022/03/19 00:45:49;;;;;;;23.58;16.90;;;;;;;6.42;75.51;104322.25;5005448;28;20464;-66
2022/03/19 00:48:16;;;;;;;25.92;18.63;;;;;;;6.59;75.01;104320.94;5003802;28;20108;-66
2022/03/19 00:50:41;;;;;;;24.17;18.48;;;;;;;6.41;75.70;104318.66;5005727;28;20941;-66
2022/03/19 00:53:06;;;;;;;25.77;18.08;;;;;;;6.58;75.02;104322.78;5006919;28;20081;-66
2022/03/19 00:55:32;;;;;;;27.40;18.85;;;;;;;6.59;75.18;104320.94;5004921;28;20430;-66
2022/03/19 00:57:57;;;;;;;24.75;18.15;;;;;;;6.63;75.07;104311.50;5004460;28;20045;-66
2022/03/19 01:00:25;;;;;;;27.00;19.38;;;;;;;6.45;75.79;104313.81;5005742;28;20030;-66
2022/03/19 01:02:51;;;;;;;29.20;19.33;;;;;;;6.51;75.68;104313.34;5005399;28;20040;-66
2022/03/19 01:05:17;;;;;;;26.75;18.52;;;;;;;6.55;75.56;104314.00;5004507;28;20481;-66
2022/03/19 01:07:50;;;;;;;28.45;19.00;;;;;;;6.48;76.30;104319.91;5005860;28;20038;-66
2022/03/19 01:10:20;;;;;;;29.70;21.02;;;;;;;6.55;76.29;104314.00;5004299;28;20037;-66
2022/03/19 01:12:47;;;;;;;30.40;21.08;;;;;;;6.39;76.96;104314.31;5005411;28;20030;-66
2022/03/19 01:15:13;;;;;;;31.80;21.23;;;;;;;6.49;76.31;104309.88;5003756;28;20485;-66
2022/03/19 01:17:39;;;;;;;29.73;21.80;;;;;;;6.52;76.60;104312.34;5002926;28;20029;-66
2022/03/19 01:20:05;;;;;;;27.67;21.98;;;;;;;6.33;77.57;104315.63;5006449;28;20021;-66
2022/03/19 01:22:32;;;;;;;26.70;21.83;;;;;;;6.22;77.89;104323.75;5004898;28;20032;-66
2022/03/19 01:25:00;;;;;;;28.30;16.58;;;;;;;6.58;76.90;104308.28;5004559;28;20076;-66
2022/03/19 01:27:25;;;;;;;30.73;22.60;;;;;;;6.41;77.46;104309.59;5003911;28;20030;-66
2022/03/19 01:29:51;;;;;;;33.65;22.25;;;;;;;6.39;77.88;104311.56;5005043;28;20503;-66
2022/03/19 01:32:16;;;;;;;31.08;19.27;;;;;;;6.18;78.73;104317.69;5005256;28;20120;-66
2022/03/19 01:34:41;;;;;;;31.92;23.13;;;;;;;6.23;78.51;104306.41;5005232;28;20030;-66
2022/03/19 01:37:07;;;;;;;31.85;20.42;;;;;;;6.19;79.15;104315.81;5001686;28;20087;-66
2022/03/19 01:39:32;;;;;;;30.80;19.95;;;;;;;6.17;79.30;104315.94;5003154;28;20026;-66
2022/03/19 01:41:58;;;;;;;30.52;22.70;;;;;;;6.03;79.74;104315.22;5004836;28;20357;-66
2022/03/19 01:44:23;;;;;;;36.60;23.55;;;;;;;6.01;80.23;104315.34;5003096;28;20491;-66
2022/03/19 01:47:03;;;;;;;20.35;14.07;;;;;;;6.16;79.75;104313.31;5004495;28;20135;-66
2022/03/19 01:49:29;;;;;;;35.20;21.92;;;;;;;6.01;80.54;104314.47;5004570;28;20045;-66
2022/03/19 01:51:54;;;;;;;32.92;22.33;;;;;;;5.84;81.35;104310.28;5005097;28;20030;-66
2022/03/19 01:54:29;;;;;;;33.13;23.90;;;;;;;5.78;81.17;104306.16;5002981;28;20481;-65
2022/03/19 01:56:55;;;;;;;35.55;21.52;;;;;;;5.82;81.15;104298.56;5005390;28;20049;-66
2022/03/19 01:59:23;;;;;;;28.00;16.58;;;;;;;6.00;81.02;104302.69;5004632;28;20033;-66
2022/03/19 02:01:50;;;;;;;33.22;24.92;;;;;;;5.76;81.51;104299.03;5001333;28;20024;-66
2022/03/19 02:04:16;;;;;;;36.72;23.58;;;;;;;5.71;81.74;104297.53;5000522;28;20033;-66
2022/03/19 02:06:44;;;;;;;38.03;24.10;;;;;;;5.76;81.70;104294.47;5004397;28;20105;-66
2022/03/19 02:09:09;;;;;;;35.35;24.13;;;;;;;5.56;82.73;104300.50;5003471;28;20034;-66
2022/03/19 02:11:35;;;;;;;33.13;22.35;;;;;;;5.46;83.09;104297.59;5005033;28;20156;-66
2022/03/19 02:14:01;;;;;;;32.83;20.33;;;;;;;5.76;82.17;104299.03;5001228;28;20029;-66
2022/03/19 02:16:26;;;;;;;35.80;21.70;;;;;;;5.73;82.02;104291.97;5003830;28;20103;-66
2022/03/19 02:18:52;;;;;;;24.10;13.95;;;;;;;5.80;81.84;104282.34;5004671;28;20022;-66
2022/03/19 02:21:17;;;;;;;39.72;23.13;;;;;;;5.78;81.99;104286.16;5004121;28;20602;-66
2022/03/19 02:26:26;;;;;;;41.83;21.38;;;;;;;5.51;83.77;104284.50;5004094;28;20776;-67
2022/03/19 02:28:51;;;;;;;36.45;23.20;;;;;;;5.52;83.70;104283.50;5003969;28;20124;-66
2022/03/19 02:31:17;;;;;;;39.70;23.17;;;;;;;5.31;84.20;104274.19;5003908;28;20508;-66
2022/03/19 02:33:42;;;;;;;33.80;22.63;;;;;;;5.51;83.26;104280.91;5003141;28;20444;-66
2022/03/19 02:36:08;;;;;;;32.63;18.15;;;;;;;5.68;82.99;104267.78;5004496;28;20022;-66
2022/03/19 02:38:33;;;;;;;37.75;22.55;;;;;;;5.50;83.67;104265.53;5004272;28;20401;-66
2022/03/19 02:41:03;;;;;;;32.65;19.17;;;;;;;5.60;83.17;104264.72;5003432;28;20052;-66
2022/03/19 02:43:28;;;;;;;32.95;20.83;;;;;;;5.55;83.26;104264.22;5003155;28;20152;-66
2022/03/19 02:45:53;;;;;;;36.05;19.85;;;;;;;5.55;83.05;104257.88;5003152;28;20113;-66
2022/03/19 02:48:18;;;;;;;28.50;16.08;;;;;;;5.79;82.39;104256.06;5003579;28;20048;-66
2022/03/19 02:50:44;;;;;;;33.55;20.33;;;;;;;5.62;82.98;104262.75;5003838;28;20060;-66
2022/03/19 02:53:11;;;;;;;19.35;14.10;;;;;;;5.85;81.84;104258.31;5003120;28;20057;-64
2022/03/19 02:55:41;;;;;;;22.90;16.05;;;;;;;6.06;81.36;104252.25;5002447;28;20060;-66
2022/03/19 02:58:07;;;;;;;40.97;24.52;;;;;;;5.36;84.17;104267.41;5004163;28;20045;-66
2022/03/19 03:00:33;;;;;;;27.92;17.38;;;;;;;5.53;83.69;104258.00;5003517;28;20029;-66
2022/03/19 03:02:59;;;;;;;28.05;17.23;;;;;;;5.21;85.39;104263.94;5013304;28;20033;-66
2022/03/19 03:05:25;;;;;;;30.15;17.35;;;;;;;5.51;83.98;104265.41;4997720;28;20053;-66
2022/03/19 03:07:50;;;;;;;39.38;20.85;;;;;;;5.26;85.31;104254.56;4988369;28;20109;-66
2022/03/19 03:10:18;;;;;;;33.15;16.95;;;;;;;5.61;83.46;104250.09;4998635;28;20026;-66
2022/03/19 03:12:44;;;;;;;34.75;21.77;;;;;;;5.51;84.25;104251.78;4997680;28;20675;-66
2022/03/19 03:15:09;;;;;;;28.95;17.58;;;;;;;5.59;84.32;104252.09;4996016;28;20198;-63
2022/03/19 03:17:35;;;;;;;30.08;17.45;;;;;;;5.44;85.33;104247.78;5000331;28;20053;-66
2022/03/19 03:20:01;;;;;;;22.52;14.95;;;;;;;5.64;83.87;104247.16;5010088;28;20838;-66
2022/03/19 03:22:28;;;;;;;37.08;21.13;;;;;;;5.35;85.60;104248.44;5005725;28;20384;-65
2022/03/19 03:24:54;;;;;;;43.78;21.02;;;;;;;5.49;85.21;104248.31;4997806;28;20100;-66
2022/03/19 03:27:19;;;;;;;40.38;22.17;;;;;;;5.38;85.15;104240.94;4991802;28;20030;-66
2022/03/19 03:29:44;;;;;;;33.22;19.65;;;;;;;5.68;84.40;104243.22;4995044;28;20396;-66
2022/03/19 03:32:10;;;;;;;35.90;20.00;;;;;;;5.40;85.25;104243.53;4994552;28;20093;-65
2022/03/19 03:34:36;;;;;;;34.10;17.90;;;;;;;5.48;84.96;104235.66;5002621;28;20022;-66
2022/03/19 03:37:01;;;;;;;30.25;17.25;;;;;;;5.35;85.55;104241.13;5003369;28;20033;-66
2022/03/19 03:39:27;;;;;;;25.70;14.05;;;;;;;5.56;84.41;104233.22;5002046;28;20025;-66
2022/03/19 03:41:52;;;;;;;21.23;13.82;;;;;;;5.62;84.29;104240.06;5002896;28;20049;-65
2022/03/19 03:44:17;;;;;;;39.40;22.30;;;;;;;5.12;86.49;104228.31;5000838;28;20034;-65
2022/03/19 03:46:42;;;;;;;24.25;14.48;;;;;;;5.39;85.63;104239.06;5001689;28;20061;-65
2022/03/19 03:49:08;;;;;;;32.42;17.13;;;;;;;5.31;86.34;104236.91;5003653;28;20026;-65
2022/03/19 03:51:33;;;;;;;38.50;21.77;;;;;;;5.36;85.96;104236.56;5003306;28;20479;-65
2022/03/19 03:53:58;;;;;;;38.45;19.80;;;;;;;5.16;86.84;104236.16;5001138;28;20025;-65
2022/03/19 03:56:24;;;;;;;26.85;17.23;;;;;;;5.55;85.11;104230.63;4999238;28;20108;-65
2022/03/19 03:58:50;;;;;;;26.70;14.20;;;;;;;5.35;86.42;104223.91;5000627;28;20045;-64
2022/03/19 04:01:16;;;;;;;41.03;23.60;;;;;;;5.18;87.06;104234.22;5002374;28;20033;-65
2022/03/19 04:03:41;;;;;;;38.72;20.15;;;;;;;5.16;87.18;104225.25;5002083;28;20046;-65
2022/03/19 04:06:07;;;;;;;26.05;16.65;;;;;;;5.49;85.74;104226.50;5002337;28;20088;-65
2022/03/19 04:08:32;;;;;;;28.48;17.92;;;;;;;5.35;86.36;104221.19;5002330;28;20042;-65
2022/03/19 04:10:57;;;;;;;26.45;13.90;;;;;;;5.48;86.08;104219.31;5001922;28;20037;-65
2022/03/19 04:13:23;;;;;;;32.28;22.05;;;;;;;5.90;84.34;104208.88;5002349;28;20042;-65
2022/03/19 04:15:50;;;;;;;39.05;20.23;;;;;;;5.66;84.48;104217.91;5006210;28;20028;-65
2022/03/19 04:18:15;;;;;;;27.13;15.65;;;;;;;5.62;85.23;104212.81;5006053;28;20022;-65
2022/03/19 04:20:40;;;;;;;30.08;22.55;;;;;;;5.85;84.32;104216.53;5006964;28;20101;-65
2022/03/19 04:23:06;;;;;;;24.33;14.13;;;;;;;5.63;84.76;104206.38;5006589;28;20021;-65
2022/03/19 04:25:31;;;;;;;27.27;15.32;;;;;;;5.65;84.58;104215.31;5005511;28;20041;-65
2022/03/19 04:27:57;;;;;;;38.92;21.50;;;;;;;5.57;84.99;104225.91;5005905;28;20603;-65
2022/03/19 04:30:26;;;;;;;33.35;17.23;;;;;;;5.52;85.25;104215.34;5005272;28;20153;-65
2022/03/19 04:32:56;;;;;;;30.05;17.48;;;;;;;5.66;84.83;104211.59;5005949;28;20014;-65
2022/03/19 04:38:12;;;;;;;28.92;19.02;;;;;;;5.84;84.46;104209.34;5007233;28;20032;-65
2022/03/19 04:40:38;;;;;;;37.17;19.88;;;;;;;5.73;84.59;104208.28;5002787;28;20516;-65
2022/03/19 04:43:04;;;;;;;31.48;17.90;;;;;;;5.60;84.68;104212.94;5006403;28;20042;-65
2022/03/19 04:45:30;;;;;;;24.90;16.60;;;;;;;5.42;85.72;104214.28;5006171;28;20045;-65
2022/03/19 04:47:55;;;;;;;26.75;17.35;;;;;;;5.58;84.97;104204.00;5005341;28;20049;-66
2022/03/19 04:50:21;;;;;;;29.95;18.92;;;;;;;5.41;85.30;104207.09;5004858;28;20037;-65
2022/03/19 04:52:47;;;;;;;32.95;22.30;;;;;;;5.85;84.12;104198.31;5006379;28;20029;-65
2022/03/19 04:55:13;;;;;;;36.10;19.23;;;;;;;5.44;84.83;104202.31;5004602;28;20049;-65
2022/03/19 04:57:38;;;;;;;27.02;17.25;;;;;;;5.57;84.93;104199.50;5005685;28;20053;-65
2022/03/19 05:00:06;;;;;;;39.78;21.35;;;;;;;5.32;85.32;104213.22;5004841;28;20034;-65
2022/03/19 05:02:32;;;;;;;35.30;20.42;;;;;;;5.20;85.78;104204.97;5005197;28;20117;-65
2022/03/19 05:04:57;;;;;;;38.92;22.83;;;;;;;5.25;85.60;104207.38;5005973;28;20034;-65
2022/03/19 05:07:24;;;;;;;31.90;14.57;;;;;;;5.25;85.96;104207.38;5003732;28;20613;-65
2022/03/19 05:12:43;;;;;;;35.92;18.73;;;;;;;5.55;84.39;104201.50;5005826;28;20140;-65
2022/03/19 05:15:14;;;;;;;31.45;19.48;;;;;;;5.63;84.16;104198.22;5005912;28;20034;-62
2022/03/19 05:17:39;;;;;;;35.63;20.35;;;;;;;5.06;86.18;104226.91;5003397;28;20375;-65
2022/03/19 05:20:05;;;;;;;29.23;17.15;;;;;;;5.36;85.49;104203.84;5017508;28;20109;-65
2022/03/19 05:22:31;;;;;;;33.60;20.05;;;;;;;5.59;84.69;104203.00;5004537;28;20037;-65
2022/03/19 05:24:58;;;;;;;33.78;17.08;;;;;;;5.44;84.64;104212.34;5002271;28;20057;-65
2022/03/19 05:27:24;;;;;;;36.88;23.77;;;;;;;5.67;84.32;104206.00;5003707;28;20029;-65
2022/03/19 05:29:50;;;;;;;30.58;17.25;;;;;;;5.42;84.66;104214.28;5005705;28;20048;-65
2022/03/19 05:32:16;;;;;;;37.35;20.35;;;;;;;5.25;85.36;104211.97;5004726;28;20031;-65
2022/03/19 05:34:41;;;;;;;30.30;19.98;;;;;;;5.47;84.67;104212.09;5005214;28;20093;-66
2022/03/19 05:37:06;;;;;;;35.28;18.50;;;;;;;5.31;84.98;104220.53;5003339;28;20018;-65
2022/03/19 05:39:33;;;;;;;37.28;18.50;;;;;;;5.11;85.69;104219.28;5002742;28;20033;-65
2022/03/19 05:41:58;;;;;;;42.22;24.10;;;;;;;5.04;86.11;104223.44;5005276;28;20506;-65
2022/03/19 05:44:24;;;;;;;32.70;21.92;;;;;;;5.46;84.73;104216.69;5004750;28;20033;-66
2022/03/19 05:46:49;;;;;;;39.80;22.50;;;;;;;5.30;85.27;104217.94;5004987;28;20022;-66
2022/03/19 05:49:15;;;;;;;35.35;19.98;;;;;;;5.31;85.31;104225.13;4999806;28;20706;-65
2022/03/19 05:51:41;;;;;;;36.20;20.65;;;;;;;5.09;85.96;104225.84;5002663;28;20704;-65
2022/03/19 05:54:06;;;;;;;31.98;17.23;;;;;;;5.28;84.59;104230.81;5002527;28;20022;-65
2022/03/19 05:56:32;;;;;;;31.38;19.50;;;;;;;5.32;85.17;104235.03;5003261;28;20165;-65
2022/03/19 05:58:58;;;;;;;43.15;23.98;;;;;;;5.10;86.16;104231.16;5001364;28;20056;-65
2022/03/19 06:01:28;;;;;;;39.35;22.55;;;;;;;5.09;86.31;104234.88;5000717;28;20307;-65
2022/03/19 06:03:54;;;;;;;32.30;19.65;;;;;;;5.17;85.52;104243.38;5002652;28;20026;-65
2022/03/19 06:06:19;;;;;;;30.70;16.02;;;;;;;4.96;86.65;104234.00;5002496;28;20022;-66
2022/03/19 06:08:45;;;;;;;32.60;19.35;;;;;;;5.21;85.48;104236.69;5000411;28;20042;-65
2022/03/19 06:11:10;;;;;;;30.98;18.10;;;;;;;5.17;85.71;104235.19;5002917;28;20306;-65
2022/03/19 06:13:35;;;;;;;26.02;16.60;;;;;;;5.24;85.18;104234.75;5004211;28;20080;-66
2022/03/19 06:16:00;;;;;;;34.05;19.05;;;;;;;5.19;85.32;104244.13;5003255;28;20525;-65
2022/03/19 06:18:26;;;;;;;23.48;15.43;;;;;;;5.15;85.88;104234.44;5002903;28;20481;-65
2022/03/19 06:20:51;;;;;;;38.58;17.77;;;;;;;5.10;86.02;104239.34;5004075;28;20029;-65
2022/03/19 06:23:17;;;;;;;22.75;14.52;;;;;;;5.32;85.09;104240.47;5002358;28;20553;-65
2022/03/19 06:25:42;;;;;;;40.38;21.38;;;;;;;4.99;86.89;104244.69;5003866;28;20425;-65
2022/03/19 06:28:08;;;;;;;33.78;17.92;;;;;;;5.10;86.23;104243.91;5004096;28;20423;-65
2022/03/19 06:30:37;;;;;;;46.88;23.10;;;;;;;4.94;87.01;104245.03;5004017;28;20034;-65
2022/03/19 06:33:04;;;;;;;32.88;21.17;;;;;;;5.00;86.67;104246.44;4983889;28;20121;-66
2022/03/19 06:38:13;;;;;;;28.27;16.10;;;;;;;5.36;86.03;104242.88;5002930;28;20049;-65
2022/03/19 06:40:38;;;;;;;31.08;18.15;;;;;;;5.31;86.24;104242.34;5003933;28;20022;-63
2022/03/19 06:43:03;;;;;;;32.95;14.43;;;;;;;5.26;85.96;104243.66;5002174;28;20022;-66
2022/03/19 06:45:29;;;;;;;24.05;15.65;;;;;;;5.54;85.15;104242.50;5001195;28;20139;-65
2022/03/19 06:47:54;;;;;;;29.90;17.67;;;;;;;5.52;84.83;104242.59;5002658;28;20030;-66
2022/03/19 06:50:19;;;;;;;28.75;15.73;;;;;;;5.57;84.85;104239.53;5003659;28;20026;-64
2022/03/19 06:52:44;;;;;;;32.72;18.75;;;;;;;5.58;85.30;104247.63;5003869;28;20014;-65
2022/03/19 06:55:10;;;;;;;24.33;14.82;;;;;;;5.83;84.11;104234.84;4996345;28;20164;-65
2022/03/19 06:57:35;;;;;;;41.42;21.17;;;;;;;5.53;86.00;104232.59;4991273;28;20041;-65
2022/03/19 07:00:00;;;;;;;32.25;18.27;;;;;;;5.71;85.09;104226.63;5001594;28;20049;-65
2022/03/19 07:02:26;;;;;;;28.30;16.90;;;;;;;6.17;83.19;104231.31;5002827;28;20033;-65
2022/03/19 07:04:51;;;;;;;28.35;17.65;;;;;;;6.21;83.46;104230.09;5000421;28;20052;-66
2022/03/19 07:07:17;;;;;;;25.40;15.25;;;;;;;6.19;83.76;104226.63;5002363;28;20388;-65
2022/03/19 07:09:43;;;;;;;36.05;20.15;;;;;;;6.45;82.25;104231.91;5000721;28;20034;-65
2022/03/19 07:12:11;;;;;;;29.95;19.92;;;;;;;6.84;80.71;104222.38;5003123;28;20069;-63
2022/03/19 07:14:37;;;;;;;33.72;19.95;;;;;;;6.56;82.10;104225.59;4985333;28;20084;-66
2022/03/19 07:17:03;;;;;;;34.25;19.50;;;;;;;6.65;82.04;104228.47;5001226;28;20029;-65
2022/03/19 07:19:28;;;;;;;33.65;19.67;;;;;;;6.62;81.69;104216.91;5003455;28;20507;-65
2022/03/19 07:21:53;;;;;;;32.78;17.05;;;;;;;6.65;82.16;104228.47;5002012;28;20034;-65
2022/03/19 07:24:19;;;;;;;33.33;18.40;;;;;;;6.76;81.10;104224.88;5000882;28;20571;-65
2022/03/19 07:26:44;;;;;;;29.75;16.63;;;;;;;6.75;81.37;104228.63;5003258;28;20026;-64
2022/03/19 07:29:10;;;;;;;34.67;18.95;;;;;;;6.87;81.30;104229.47;4998549;28;20128;-64
2022/03/19 07:31:35;;;;;;;30.05;18.95;;;;;;;7.21;79.14;104225.75;5002966;28;20031;-65
2022/03/19 07:34:00;;;;;;;30.33;19.15;;;;;;;7.32;78.90;104221.28;5003271;28;20026;-66
2022/03/19 07:36:26;;;;;;;28.77;18.05;;;;;;;7.62;77.36;104221.47;5001115;28;20400;-66
2022/03/19 07:38:51;;;;;;;26.45;16.70;;;;;;;8.08;75.44;104217.56;5001139;28;20025;-67
2022/03/19 07:44:00;;;;;;;22.38;12.80;;;;;;;8.38;73.48;104204.97;4999257;28;20037;-65
2022/03/19 07:46:27;;;;;;;26.85;15.52;;;;;;;8.52;71.97;104218.34;4998277;28;20034;-65
2022/03/19 07:48:52;;;;;;;25.00;13.70;;;;;;;8.67;73.15;104217.00;5000997;28;20076;-65
2022/03/19 07:51:18;;;;;;;25.00;13.13;;;;;;;8.77;71.50;104223.41;5000732;28;20187;-65
2022/03/19 07:53:43;;;;;;;25.33;14.70;;;;;;;8.89;71.07;104215.06;5001451;28;20030;-66
2022/03/19 07:56:09;;;;;;;20.42;13.35;;;;;;;9.25;69.75;104214.50;5002656;28;20382;-65
2022/03/19 07:58:34;;;;;;;28.00;14.48;;;;;;;9.40;69.01;104206.75;5002884;28;20433;-66
2022/03/19 08:00:59;;;;;;;24.58;13.88;;;;;;;9.54;68.73;104205.47;5001018;28;20026;-66
2022/03/19 08:03:25;;;;;;;29.38;15.40;;;;;;;9.76;68.51;104190.63;5001283;28;20088;-66
2022/03/19 08:05:50;;;;;;;25.92;13.63;;;;;;;10.00;67.84;104191.06;5002797;28;20380;-67
2022/03/19 08:08:15;;;;;;;22.00;12.77;;;;;;;9.95;65.53;104192.50;5015856;28;20058;-67
2022/03/19 08:10:41;;;;;;;22.58;14.02;;;;;;;9.92;64.84;104199.16;5002232;28;20034;-67
2022/03/19 08:13:08;;;;;;;24.67;12.20;;;;;;;9.95;64.65;104203.50;4999898;28;20037;-67
2022/03/19 08:15:34;;;;;;;23.75;12.57;;;;;;;9.71;64.17;104195.69;5001973;28;20026;-67
2022/03/19 08:17:59;;;;;;;22.27;10.68;;;;;;;10.20;64.39;104210.28;5001895;28;20276;-68
2022/03/19 08:20:26;;;;;;;22.27;11.32;;;;;;;10.00;64.72;104217.66;5000210;28;20451;-67
2022/03/19 08:22:51;;;;;;;20.38;11.43;;;;;;;9.81;64.88;104207.53;4999726;28;20469;-66
2022/03/19 08:25:17;;;;;;;23.73;12.10;;;;;;;9.74;64.02;104210.00;5000418;28;20097;-67
2022/03/19 08:27:42;;;;;;;26.45;12.30;;;;;;;9.95;64.97;104219.97;4999978;28;20529;-67
2022/03/19 08:30:08;;;;;;;21.70;11.55;;;;;;;10.38;62.31;104212.16;4982497;28;20034;-67
2022/03/19 08:32:34;;;;;;;21.67;9.18;;;;;;;10.38;61.53;104217.66;4982538;28;20031;-67
2022/03/19 08:35:00;;;;;;;21.98;11.25;;;;;;;10.06;62.67;104214.31;5001805;28;20500;-67
2022/03/19 08:37:26;;;;;;;20.20;9.90;;;;;;;10.22;62.84;104213.75;5000117;28;20026;-66
2022/03/19 08:42:36;;;;;;;22.48;11.55;;;;;;;10.35;60.95;104203.34;5001862;28;20045;-67
2022/03/19 08:45:01;;;;;;;21.25;11.43;;;;;;;10.50;60.60;104203.75;5001883;28;20021;-66
2022/03/19 08:47:27;;;;;;;25.55;11.05;;;;;;;10.83;59.59;104200.47;5001013;28;20105;-67
2022/03/19 08:49:52;;;;;;;20.15;10.60;;;;;;;11.07;59.75;104201.81;5001278;28;20038;-68
2022/03/19 08:52:17;;;;;;;22.85;9.93;;;;;;;11.29;60.05;104201.41;4998386;28;20022;-67
2022/03/19 08:54:43;;;;;;;19.30;10.73;;;;;;;11.42;58.78;104201.91;5000961;28;20105;-67
2022/03/19 08:57:10;;;;;;;22.05;11.43;;;;;;;11.47;57.97;104203.34;5001984;28;20034;-64
2022/03/19 08:59:35;;;;;;;17.63;8.73;;;;;;;11.80;58.33;104205.41;5001429;28;20026;-68
2022/03/19 09:02:00;;;;;;;19.48;9.82;;;;;;;11.80;56.37;104202.66;4996385;28;20293;-68
2022/03/19 09:04:26;;;;;;;23.80;10.73;;;;;;;12.80;56.45;104200.56;5004740;28;20038;-68
2022/03/19 09:06:51;;;;;;;19.33;9.00;;;;;;;13.93;51.60;104194.56;5004404;28;20066;-68
2022/03/19 09:09:17;;;;;;;16.65;7.63;;;;;;;14.80;48.81;104192.13;5003987;28;20034;-67
2022/03/19 09:11:43;;;;;;;19.17;9.20;;;;;;;14.56;48.79;104193.03;5000679;28;20054;-68
2022/03/19 09:14:09;;;;;;;18.52;10.15;;;;;;;14.41;49.07;104186.47;5004014;28;20030;-68
2022/03/19 09:16:35;;;;;;;20.08;9.18;;;;;;;15.05;47.47;104193.78;5004521;28;20033;-68
2022/03/19 09:19:01;;;;;;;18.23;9.05;;;;;;;15.79;44.75;104185.06;5005094;28;20479;-67
2022/03/19 09:21:29;;;;;;;15.30;7.57;;;;;;;16.08;44.43;104185.19;5003811;28;20116;-67
2022/03/19 09:23:55;;;;;;;19.00;8.45;;;;;;;16.06;44.38;104187.25;5003754;28;20032;-67
2022/03/19 09:26:20;;;;;;;17.90;7.93;;;;;;;16.20;43.62;104187.50;5002816;28;20026;-67
2022/03/19 09:28:46;;;;;;;17.98;8.15;;;;;;;16.58;41.47;104186.44;5004648;28;20022;-67
2022/03/19 09:31:14;;;;;;;18.55;8.52;;;;;;;16.63;42.63;104191.44;5004145;28;20057;-67
2022/03/19 09:33:39;;;;;;;18.35;8.77;;;;;;;16.81;41.08;104188.31;5004663;28;20022;-66
2022/03/19 09:36:05;;;;;;;20.65;9.23;;;;;;;17.56;40.57;104188.00;5004712;28;20026;-67
2022/03/19 09:38:31;;;;;;;16.38;7.18;;;;;;;17.03;41.12;104189.25;5001514;28;20318;-67
2022/03/19 09:40:56;;;;;;;16.42;8.35;;;;;;;17.82;39.33;104186.63;5004391;28;20109;-67
2022/03/19 09:43:26;;;;;;;17.45;7.15;;;;;;;18.24;39.47;104173.72;5001902;28;20065;-67
2022/03/19 09:45:52;;;;;;;18.02;7.97;;;;;;;18.64;37.30;104172.13;5004040;28;20053;-66
2022/03/19 09:48:19;;;;;;;18.30;8.00;;;;;;;19.36;35.34;104165.22;5003044;28;20049;-67
2022/03/19 09:50:45;;;;;;;18.00;8.57;;;;;;;19.26;34.59;104164.75;5003124;28;20026;-67
2022/03/19 09:53:11;;;;;;;24.88;12.73;;;;;;;19.59;35.17;104162.97;5002924;28;20551;-66
2022/03/19 09:55:39;;;;;;;17.65;7.30;;;;;;;19.41;34.36;104155.19;5002747;28;20037;-67
2022/03/19 09:58:05;;;;;;;16.75;7.15;;;;;;;18.90;34.93;104152.81;5002518;28;20559;-67
2022/03/19 10:00:31;;;;;;;16.23;7.25;;;;;;;18.96;34.50;104159.50;5004221;28;20138;-67
2022/03/19 10:03:06;;;;;;;15.27;7.00;;;;;;;18.75;34.64;104151.22;5003696;28;20026;-67
2022/03/19 10:08:37;;;;;;;15.90;6.20;;;;;;;19.75;32.71;104142.19;5002870;28;20104;-67
2022/03/19 10:11:07;;;;;;;14.13;6.68;;;;;;;20.13;32.50;104136.00;5003938;28;20030;-67
2022/03/19 10:13:32;;;;;;;18.27;6.55;;;;;;;20.50;30.63;104131.69;5002821;28;20505;-67
2022/03/19 10:15:58;;;;;;;13.40;6.95;;;;;;;20.71;30.79;104133.34;4999504;28;20045;-68
2022/03/19 10:18:30;;;;;;;14.50;6.63;;;;;;;20.92;31.18;104129.41;5002277;28;20030;-67
2022/03/19 10:21:01;;;;;;;17.10;6.15;;;;;;;20.85;28.92;104126.66;5003882;28;20041;-67
2022/03/19 10:23:44;;;;;;;14.35;6.57;;;;;;;20.67;30.31;104121.75;5001338;28;20113;-68
2022/03/19 10:26:26;;;;;;;12.30;6.38;;;;;;;20.69;30.05;104125.22;4984028;28;20030;-67
2022/03/19 10:29:00;;;;;;;14.73;6.20;;;;;;;20.75;28.85;104126.25;4987741;28;20022;-68
2022/03/19 10:31:56;;;;;;;12.40;6.80;;;;;;;20.89;28.55;104118.69;4983011;28;20512;-68
2022/03/19 10:34:21;;;;;;;12.27;5.68;;;;;;;20.12;29.63;104096.09;4988904;28;20108;-68
2022/03/19 10:36:47;;;;;;;11.57;5.20;;;;;;;19.98;28.86;104099.94;5003494;28;20030;-68
2022/03/19 10:39:18;;;;;;;15.20;5.93;;;;;;;19.40;28.95;104105.19;4999588;28;20327;-68
2022/03/19 10:41:43;;;;;;;12.65;6.28;;;;;;;19.01;28.79;104092.88;5003414;28;20029;-68
2022/03/19 10:44:14;;;;;;;13.13;6.00;;;;;;;19.30;29.81;104097.25;5001358;28;20465;-67
2022/03/19 10:46:50;;;;;;;13.07;6.30;;;;;;;19.41;29.77;104096.66;5002454;28;20025;-67
2022/03/19 10:49:17;;;;;;;13.13;6.22;;;;;;;20.38;28.92;104081.22;5003128;28;20029;-68
2022/03/19 10:51:44;;;;;;;15.15;5.82;;;;;;;21.14;27.00;104072.16;5003181;28;20469;-68
2022/03/19 10:54:11;;;;;;;14.47;5.90;;;;;;;21.21;28.08;104077.69;4999618;28;20272;-67
2022/03/19 10:56:37;;;;;;;12.63;5.68;;;;;;;21.70;26.52;104067.72;5003423;28;20101;-68
2022/03/19 10:59:02;;;;;;;13.50;5.95;;;;;;;21.73;25.98;104061.63;5003313;28;20370;-67
2022/03/19 11:01:29;;;;;;;9.05;4.47;;;;;;;20.52;25.85;104070.88;5002017;28;20022;-68
2022/03/19 11:03:55;;;;;;;12.30;4.50;;;;;;;20.14;26.97;104060.44;5001572;28;20022;-67
2022/03/19 11:06:25;;;;;;;11.93;4.63;;;;;;;20.85;26.26;104055.94;5002839;28;20172;-68
2022/03/19 11:08:51;;;;;;;9.50;4.03;;;;;;;20.17;25.14;104046.06;5001789;28;20129;-68
2022/03/19 11:11:18;;;;;;;12.70;4.03;;;;;;;19.53;24.57;104043.03;5003176;28;20192;-68
2022/03/19 11:13:51;;;;;;;8.23;3.25;;;;;;;19.34;25.43;104042.78;5002153;28;20053;-67
2022/03/19 11:16:20;;;;;;;13.18;4.70;;;;;;;19.67;26.23;104040.09;5001902;28;20065;-68
2022/03/19 11:18:47;;;;;;;11.75;4.10;;;;;;;20.86;25.41;104029.72;5003077;28;20022;-68
2022/03/19 11:21:14;;;;;;;10.35;4.22;;;;;;;20.20;24.23;104033.59;4998819;28;20026;-67
2022/03/19 11:23:49;;;;;;;11.02;4.45;;;;;;;20.15;24.70;104025.00;4999277;28;20117;-67
2022/03/19 11:26:22;;;;;;;9.75;3.60;;;;;;;20.42;23.89;104020.19;5001060;28;20103;-67
2022/03/19 11:28:48;;;;;;;10.52;3.80;;;;;;;20.88;22.70;104027.56;4983104;28;20030;-68
2022/03/19 11:31:15;;;;;;;7.97;3.85;;;;;;;20.15;23.22;104008.25;4987655;28;20044;-67
2022/03/19 11:33:42;;;;;;;9.15;3.88;;;;;;;19.75;22.82;104008.31;5002387;28;20018;-67